createdAt,value
2016-06-28T00:00:09.567Z,1011.46
2016-06-28T00:01:09.549Z,1011.47
2016-06-28T00:02:09.540Z,1011.44
2016-06-28T00:03:09.525Z,1011.42
2016-06-28T00:04:09.512Z,1011.42
2016-06-28T00:05:09.494Z,1011.41
2016-06-28T00:06:09.488Z,1011.41
2016-06-28T00:07:09.474Z,1011.45
2016-06-28T00:08:09.459Z,1011.43
2016-06-28T00:09:09.443Z,1011.46
2016-06-28T00:10:09.435Z,1011.42
2016-06-28T00:11:09.417Z,1011.37
2016-06-28T00:12:09.409Z,1011.35
2016-06-28T00:13:09.391Z,1011.32
2016-06-28T00:14:09.392Z,1011.34
2016-06-28T00:15:09.374Z,1011.35
2016-06-28T00:16:09.355Z,1011.28
2016-06-28T00:17:09.340Z,1011.26
2016-06-28T00:18:09.337Z,1011.23
2016-06-28T00:19:09.322Z,1011.24
2016-06-28T00:20:09.305Z,1011.24
2016-06-28T00:21:09.292Z,1011.2
2016-06-28T00:22:09.280Z,1011.22
2016-06-28T00:23:09.266Z,1011.16
2016-06-28T00:24:09.259Z,1011.21
2016-06-28T00:25:09.240Z,1011.16
2016-06-28T00:26:09.233Z,1011.17
2016-06-28T00:27:09.219Z,1011.16
2016-06-28T00:28:09.207Z,1011.18
2016-06-28T00:29:09.194Z,1011.14
2016-06-28T00:30:09.176Z,1011.1
2016-06-28T00:31:09.170Z,1011.14
2016-06-28T00:32:09.151Z,1011.12
2016-06-28T00:33:09.143Z,1011.14
2016-06-28T00:34:09.128Z,1011.14
2016-06-28T00:35:09.115Z,1011.11
2016-06-28T00:36:09.103Z,1011.1
2016-06-28T00:37:09.090Z,1011.11
2016-06-28T00:38:09.074Z,1011.12
2016-06-28T00:39:09.071Z,1011.12
2016-06-28T00:40:09.052Z,1011.13
2016-06-28T00:41:09.044Z,1011.12
2016-06-28T00:42:09.027Z,1011.13
2016-06-28T00:43:09.013Z,1011.12
2016-06-28T00:44:08.993Z,1011.16
2016-06-28T00:45:08.989Z,1011.16
2016-06-28T00:46:08.978Z,1011.12
2016-06-28T00:47:08.965Z,1011.12
2016-06-28T00:48:08.951Z,1011.09
2016-06-28T00:49:08.939Z,1011.07
2016-06-28T00:50:08.939Z,1011.09
2016-06-28T00:51:08.913Z,1011.04
2016-06-28T00:52:08.900Z,1010.99
2016-06-28T00:53:08.882Z,1011
2016-06-28T00:54:08.870Z,1011.01
2016-06-28T00:55:08.861Z,1011.05
2016-06-28T00:56:08.846Z,1011.01
2016-06-28T00:57:08.852Z,1010.97
2016-06-28T00:58:08.818Z,1011.02
2016-06-28T00:59:08.817Z,1010.96
2016-06-28T01:00:08.797Z,1010.95
2016-06-28T01:01:08.813Z,1010.96
2016-06-28T01:02:08.769Z,1010.97
2016-06-28T01:03:08.759Z,1010.94
2016-06-28T01:04:08.746Z,1010.93
2016-06-28T01:05:08.739Z,1010.91
2016-06-28T01:06:08.723Z,1010.91
2016-06-28T01:07:08.710Z,1010.86
2016-06-28T01:08:08.689Z,1010.88
2016-06-28T01:09:08.689Z,1010.88
2016-06-28T01:10:08.666Z,1010.91
2016-06-28T01:11:08.660Z,1010.88
2016-06-28T01:12:08.638Z,1010.89
2016-06-28T01:13:08.635Z,1010.89
2016-06-28T01:14:08.614Z,1010.9
2016-06-28T01:15:08.610Z,1010.87
2016-06-28T01:16:08.610Z,1010.88
2016-06-28T01:17:08.582Z,1010.86
2016-06-28T01:18:08.566Z,1010.87
2016-06-28T01:19:08.556Z,1010.87
2016-06-28T01:20:08.540Z,1010.86
2016-06-28T01:21:08.530Z,1010.81
2016-06-28T01:22:08.515Z,1010.79
2016-06-28T01:23:08.500Z,1010.8
2016-06-28T01:24:08.492Z,1010.78
2016-06-28T01:25:08.480Z,1010.84
2016-06-28T01:26:08.463Z,1010.82
2016-06-28T01:27:08.450Z,1010.79
2016-06-28T01:28:08.438Z,1010.77
2016-06-28T01:29:08.435Z,1010.76
2016-06-28T01:30:08.414Z,1010.77
2016-06-28T01:31:08.398Z,1010.7
2016-06-28T01:32:08.386Z,1010.74
2016-06-28T01:33:08.373Z,1010.76
2016-06-28T01:34:08.361Z,1010.71
2016-06-28T01:35:08.354Z,1010.69
2016-06-28T01:36:08.336Z,1010.7
2016-06-28T01:37:08.325Z,1010.74
2016-06-28T01:38:08.312Z,1010.73
2016-06-28T01:39:08.299Z,1010.67
2016-06-28T01:40:08.285Z,1010.66
2016-06-28T01:41:08.272Z,1010.65
2016-06-28T01:42:08.259Z,1010.61
2016-06-28T01:43:08.243Z,1010.58
2016-06-28T01:44:08.238Z,1010.57
2016-06-28T01:45:08.222Z,1010.55
2016-06-28T01:46:08.210Z,1010.52
2016-06-28T01:47:08.194Z,1010.54
2016-06-28T01:48:08.190Z,1010.53
2016-06-28T01:49:08.170Z,1010.44
2016-06-28T01:50:08.161Z,1010.41
2016-06-28T01:51:08.145Z,1010.41
2016-06-28T01:52:08.142Z,1010.39
2016-06-28T01:53:08.120Z,1010.34
2016-06-28T01:54:08.110Z,1010.37
2016-06-28T01:55:08.095Z,1010.38
2016-06-28T01:56:08.082Z,1010.41
2016-06-28T01:57:08.065Z,1010.38
2016-06-28T01:58:08.055Z,1010.39
2016-06-28T01:59:08.043Z,1010.4
2016-06-28T02:00:08.042Z,1010.39
2016-06-28T02:01:08.024Z,1010.34
2016-06-28T02:02:08.003Z,1010.4
2016-06-28T02:03:07.995Z,1010.37
2016-06-28T02:04:07.979Z,1010.36
2016-06-28T02:05:07.971Z,1010.35
2016-06-28T02:06:07.954Z,1010.35
2016-06-28T02:07:07.943Z,1010.35
2016-06-28T02:08:07.947Z,1010.36
2016-06-28T02:09:07.915Z,1010.33
2016-06-28T02:10:07.912Z,1010.34
2016-06-28T02:11:07.890Z,1010.34
2016-06-28T02:12:07.870Z,1010.37
2016-06-28T02:13:07.869Z,1010.35
2016-06-28T02:14:07.850Z,1010.34
2016-06-28T02:15:07.833Z,1010.32
2016-06-28T02:16:07.834Z,1010.35
2016-06-28T02:17:07.809Z,1010.33
2016-06-28T02:18:07.823Z,1010.31
2016-06-28T02:19:07.786Z,1010.33
2016-06-28T02:20:07.772Z,1010.28
2016-06-28T02:21:07.759Z,1010.26
2016-06-28T02:22:07.751Z,1010.25
2016-06-28T02:23:07.743Z,1010.21
2016-06-28T02:24:07.720Z,1010.24
2016-06-28T02:25:07.711Z,1010.23
2016-06-28T02:26:07.697Z,1010.26
2016-06-28T02:27:07.688Z,1010.23
2016-06-28T02:28:07.667Z,1010.17
2016-06-28T02:29:07.658Z,1010.23
2016-06-28T02:30:07.650Z,1010.2
2016-06-28T02:31:07.636Z,1010.17
2016-06-28T02:32:07.629Z,1010.2
2016-06-28T02:33:07.611Z,1010.18
2016-06-28T02:34:07.595Z,1010.15
2016-06-28T02:35:07.582Z,1010.15
2016-06-28T02:36:07.565Z,1010.14
2016-06-28T02:37:07.551Z,1010.14
2016-06-28T02:38:07.539Z,1010.1
2016-06-28T02:39:07.529Z,1010.13
2016-06-28T02:40:07.521Z,1010.12
2016-06-28T02:41:07.506Z,1010.12
2016-06-28T02:42:07.489Z,1010.11
2016-06-28T02:43:07.478Z,1010.12
2016-06-28T02:44:07.477Z,1010.11
2016-06-28T02:45:07.450Z,1010.08
2016-06-28T02:46:07.442Z,1010.1
2016-06-28T02:47:07.424Z,1010.07
2016-06-28T02:48:07.427Z,1010.07
2016-06-28T02:49:07.407Z,1010.11
2016-06-28T02:50:07.394Z,1010.1
2016-06-28T02:51:07.373Z,1010.08
2016-06-28T02:52:07.362Z,1010.09
2016-06-28T02:53:07.353Z,1010.05
2016-06-28T02:54:07.334Z,1010.03
2016-06-28T02:55:07.328Z,1010.04
2016-06-28T02:56:07.313Z,1010.02
2016-06-28T02:57:07.299Z,1009.98
2016-06-28T02:58:07.295Z,1010.03
2016-06-28T02:59:07.279Z,1010.02
2016-06-28T03:00:07.262Z,1010.02
2016-06-28T03:01:07.247Z,1010
2016-06-28T03:02:07.233Z,1009.92
2016-06-28T03:03:07.220Z,1009.98
2016-06-28T03:04:07.208Z,1010
2016-06-28T03:05:07.198Z,1009.95
2016-06-28T03:06:07.191Z,1010.05
2016-06-28T03:07:07.175Z,1009.98
2016-06-28T03:08:07.161Z,1009.96
2016-06-28T03:09:07.152Z,1009.93
2016-06-28T03:10:07.137Z,1009.87
2016-06-28T03:11:07.118Z,1009.93
2016-06-28T03:12:07.107Z,1009.89
2016-06-28T03:13:07.095Z,1009.87
2016-06-28T03:14:07.085Z,1009.84
2016-06-28T03:15:07.077Z,1009.85
2016-06-28T03:16:07.054Z,1009.82
2016-06-28T03:17:07.042Z,1009.81
2016-06-28T03:18:07.033Z,1009.84
2016-06-28T03:19:07.021Z,1009.77
2016-06-28T03:20:07.005Z,1009.81
2016-06-28T03:21:06.991Z,1009.79
2016-06-28T03:22:06.982Z,1009.79
2016-06-28T03:23:06.970Z,1009.76
2016-06-28T03:24:06.959Z,1009.77
2016-06-28T03:25:06.941Z,1009.76
2016-06-28T03:26:06.935Z,1009.72
2016-06-28T03:27:06.916Z,1009.74
2016-06-28T03:28:06.911Z,1009.75
2016-06-28T03:29:06.898Z,1009.74
2016-06-28T03:30:06.886Z,1009.75
2016-06-28T03:31:06.865Z,1009.71
2016-06-28T03:32:06.854Z,1009.76
2016-06-28T03:33:06.838Z,1009.74
2016-06-28T03:34:06.826Z,1009.79
2016-06-28T03:35:06.814Z,1009.78
2016-06-28T03:36:06.805Z,1009.79
2016-06-28T03:37:06.798Z,1009.79
2016-06-28T03:38:06.779Z,1009.78
2016-06-28T03:39:06.771Z,1009.85
2016-06-28T03:40:06.760Z,1009.82
2016-06-28T03:41:06.733Z,1009.78
2016-06-28T03:42:06.727Z,1009.83
2016-06-28T03:43:06.711Z,1009.76
2016-06-28T03:44:06.702Z,1009.77
2016-06-28T03:45:06.694Z,1009.74
2016-06-28T03:46:06.676Z,1009.7
2016-06-28T03:47:06.659Z,1009.75
2016-06-28T03:48:06.651Z,1009.73
2016-06-28T03:49:06.640Z,1009.71
2016-06-28T03:50:06.625Z,1009.73
2016-06-28T03:51:06.612Z,1009.76
2016-06-28T03:52:06.598Z,1009.76
2016-06-28T03:53:06.585Z,1009.74
2016-06-28T03:54:06.574Z,1009.76
2016-06-28T03:55:06.559Z,1009.8
2016-06-28T03:56:06.545Z,1009.84
2016-06-28T03:57:06.536Z,1009.85
2016-06-28T03:58:06.520Z,1009.9
2016-06-28T03:59:06.508Z,1009.92
2016-06-28T04:00:06.497Z,1009.92
2016-06-28T04:01:06.482Z,1009.97
2016-06-28T04:03:06.453Z,1009.98
2016-06-28T04:04:06.443Z,1010.05
2016-06-28T04:05:06.426Z,1010.03
2016-06-28T04:06:06.417Z,1010.06
2016-06-28T04:07:06.402Z,1010.06
2016-06-28T04:08:06.389Z,1010.09
2016-06-28T04:09:06.377Z,1010.1
2016-06-28T04:10:06.363Z,1010.17
2016-06-28T04:11:06.355Z,1010.18
2016-06-28T04:12:06.337Z,1010.17
2016-06-28T04:13:06.322Z,1010.23
2016-06-28T04:14:06.318Z,1010.2
2016-06-28T04:15:06.300Z,1010.2
2016-06-28T04:16:06.287Z,1010.24
2016-06-28T04:17:06.271Z,1010.21
2016-06-28T04:18:06.262Z,1010.26
2016-06-28T04:19:06.249Z,1010.24
2016-06-28T04:20:06.234Z,1010.24
2016-06-28T04:21:06.235Z,1010.23
2016-06-28T04:22:06.208Z,1010.21
2016-06-28T04:23:06.194Z,1010.23
2016-06-28T04:24:06.183Z,1010.19
2016-06-28T04:25:06.171Z,1010.21
2016-06-28T04:26:06.165Z,1010.2
2016-06-28T04:27:06.142Z,1010.24
2016-06-28T04:28:06.131Z,1010.27
2016-06-28T04:29:06.115Z,1010.3
2016-06-28T04:30:06.108Z,1010.29
2016-06-28T04:31:06.090Z,1010.3
2016-06-28T04:32:06.099Z,1010.33
2016-06-28T04:33:06.070Z,1010.35
2016-06-28T04:34:06.062Z,1010.38
2016-06-28T04:35:06.066Z,1010.4
2016-06-28T04:36:06.051Z,1010.38
2016-06-28T04:37:06.010Z,1010.32
2016-06-28T04:38:06.003Z,1010.36
2016-06-28T04:39:05.986Z,1010.35
2016-06-28T04:40:05.978Z,1010.4
2016-06-28T04:41:05.962Z,1010.41
2016-06-28T04:42:05.958Z,1010.41
2016-06-28T04:43:05.934Z,1010.4
2016-06-28T04:44:05.920Z,1010.4
2016-06-28T04:45:05.911Z,1010.42
2016-06-28T04:46:05.899Z,1010.41
2016-06-28T04:47:05.882Z,1010.41
2016-06-28T04:48:05.870Z,1010.42
2016-06-28T04:49:05.859Z,1010.41
2016-06-28T04:50:05.846Z,1010.38
2016-06-28T04:51:05.834Z,1010.39
2016-06-28T04:52:05.821Z,1010.34
2016-06-28T04:53:05.803Z,1010.38
2016-06-28T04:54:05.793Z,1010.36
2016-06-28T04:55:05.782Z,1010.31
2016-06-28T04:56:05.779Z,1010.32
2016-06-28T04:57:05.756Z,1010.34
2016-06-28T04:58:05.757Z,1010.31
2016-06-28T04:59:05.731Z,1010.28
2016-06-28T05:00:05.711Z,1010.3
2016-06-28T05:01:05.702Z,1010.26
2016-06-28T05:02:05.689Z,1010.28
2016-06-28T05:03:05.678Z,1010.27
2016-06-28T05:04:05.672Z,1010.28
2016-06-28T05:05:05.650Z,1010.26
2016-06-28T05:06:05.638Z,1010.25
2016-06-28T05:07:05.619Z,1010.27
2016-06-28T05:08:05.609Z,1010.27
2016-06-28T05:09:05.597Z,1010.32
2016-06-28T05:10:05.583Z,1010.36
2016-06-28T05:11:05.572Z,1010.38
2016-06-28T05:12:05.562Z,1010.38
2016-06-28T05:13:05.541Z,1010.45
2016-06-28T05:14:05.529Z,1010.47
2016-06-28T05:15:05.526Z,1010.48
2016-06-28T05:16:05.513Z,1010.49
2016-06-28T05:17:05.492Z,1010.54
2016-06-28T05:18:05.475Z,1010.52
2016-06-28T05:19:05.461Z,1010.54
2016-06-28T05:20:05.451Z,1010.61
2016-06-28T05:21:05.450Z,1010.56
2016-06-28T05:22:05.425Z,1010.6
2016-06-28T05:23:05.416Z,1010.6
2016-06-28T05:24:05.395Z,1010.61
2016-06-28T05:25:05.405Z,1010.63
2016-06-28T05:26:05.371Z,1010.63
2016-06-28T05:27:05.365Z,1010.57
2016-06-28T05:28:05.341Z,1010.6
2016-06-28T05:29:05.331Z,1010.63
2016-06-28T05:30:05.314Z,1010.61
2016-06-28T05:31:05.309Z,1010.57
2016-06-28T05:32:05.291Z,1010.53
2016-06-28T05:33:05.278Z,1010.57
2016-06-28T05:34:05.268Z,1010.58
2016-06-28T05:35:05.252Z,1010.5
2016-06-28T05:36:05.239Z,1010.46
2016-06-28T05:37:05.227Z,1010.46
2016-06-28T05:38:05.220Z,1010.5
2016-06-28T05:39:05.199Z,1010.45
2016-06-28T05:40:05.192Z,1010.38
2016-06-28T05:41:05.176Z,1010.41
2016-06-28T05:42:05.162Z,1010.36
2016-06-28T05:43:05.146Z,1010.36
2016-06-28T05:44:05.132Z,1010.32
2016-06-28T05:45:05.128Z,1010.33
2016-06-28T05:46:05.103Z,1010.31
2016-06-28T05:47:05.094Z,1010.32
2016-06-28T05:48:05.084Z,1010.31
2016-06-28T05:49:05.071Z,1010.31
2016-06-28T05:50:05.054Z,1010.3
2016-06-28T05:51:05.046Z,1010.29
2016-06-28T05:52:05.028Z,1010.31
2016-06-28T05:53:05.014Z,1010.28
2016-06-28T05:54:04.999Z,1010.31
2016-06-28T05:55:04.990Z,1010.33
2016-06-28T05:56:04.980Z,1010.33
2016-06-28T05:57:04.963Z,1010.38
2016-06-28T05:58:04.950Z,1010.36
2016-06-28T05:59:04.935Z,1010.39
2016-06-28T06:00:04.923Z,1010.39
2016-06-28T06:01:04.910Z,1010.35
2016-06-28T06:02:04.897Z,1010.43
2016-06-28T06:03:04.879Z,1010.39
2016-06-28T06:04:04.872Z,1010.39
2016-06-28T06:05:04.855Z,1010.35
2016-06-28T06:06:04.842Z,1010.34
2016-06-28T06:07:04.826Z,1010.34
2016-06-28T06:08:04.829Z,1010.36
2016-06-28T06:09:04.807Z,1010.35
2016-06-28T06:10:04.791Z,1010.39
2016-06-28T06:11:04.776Z,1010.42
2016-06-28T06:12:04.761Z,1010.44
2016-06-28T06:13:04.754Z,1010.55
2016-06-28T06:14:04.735Z,1010.66
2016-06-28T06:15:04.725Z,1010.76
2016-06-28T06:16:04.707Z,1010.86
2016-06-28T06:17:04.702Z,1010.95
2016-06-28T06:18:04.688Z,1010.98
2016-06-28T06:19:04.670Z,1010.96
2016-06-28T06:20:04.658Z,1010.89
2016-06-28T06:21:04.652Z,1010.84
2016-06-28T06:22:04.635Z,1010.77
2016-06-28T06:23:04.623Z,1010.71
2016-06-28T06:24:04.607Z,1010.66
2016-06-28T06:25:04.604Z,1010.72
2016-06-28T06:26:04.583Z,1010.73
2016-06-28T06:27:04.568Z,1010.73
2016-06-28T06:28:04.556Z,1010.76
2016-06-28T06:29:04.539Z,1010.75
2016-06-28T06:30:04.527Z,1010.75
2016-06-28T06:31:04.516Z,1010.72
2016-06-28T06:32:04.503Z,1010.77
2016-06-28T06:33:04.491Z,1010.76
2016-06-28T06:34:04.479Z,1010.82
2016-06-28T06:35:04.460Z,1010.83
2016-06-28T06:36:04.451Z,1010.8
2016-06-28T06:37:04.439Z,1010.81
2016-06-28T06:38:04.430Z,1010.79
2016-06-28T06:39:04.413Z,1010.74
2016-06-28T06:40:04.398Z,1010.72
2016-06-28T06:41:04.387Z,1010.79
2016-06-28T06:42:04.375Z,1010.7
2016-06-28T06:43:04.359Z,1010.7
2016-06-28T06:44:04.349Z,1010.66
2016-06-28T06:45:04.331Z,1010.68
2016-06-28T06:46:04.323Z,1010.61
2016-06-28T06:47:04.304Z,1010.63
2016-06-28T06:48:04.314Z,1010.62
2016-06-28T06:49:04.278Z,1010.58
2016-06-28T06:50:04.274Z,1010.63
2016-06-28T06:51:04.261Z,1010.64
2016-06-28T06:52:04.249Z,1010.62
2016-06-28T06:53:04.231Z,1010.63
2016-06-28T06:54:04.221Z,1010.6
2016-06-28T06:55:04.204Z,1010.61
2016-06-28T06:56:04.195Z,1010.58
2016-06-28T06:57:04.180Z,1010.6
2016-06-28T06:58:04.170Z,1010.54
2016-06-28T06:59:04.154Z,1010.52
2016-06-28T07:00:04.138Z,1010.53
2016-06-28T07:01:04.124Z,1010.49
2016-06-28T07:02:04.113Z,1010.49
2016-06-28T07:03:04.099Z,1010.45
2016-06-28T07:04:04.094Z,1010.46
2016-06-28T07:05:04.085Z,1010.46
2016-06-28T07:06:04.064Z,1010.48
2016-06-28T07:07:04.060Z,1010.51
2016-06-28T07:08:04.038Z,1010.51
2016-06-28T07:09:04.034Z,1010.5
2016-06-28T07:10:04.014Z,1010.53
2016-06-28T07:11:03.998Z,1010.52
2016-06-28T07:12:03.992Z,1010.54
2016-06-28T07:13:03.979Z,1010.53
2016-06-28T07:14:03.962Z,1010.52
2016-06-28T07:15:03.943Z,1010.51
2016-06-28T07:16:03.933Z,1010.53
2016-06-28T07:17:03.924Z,1010.57
2016-06-28T07:18:03.907Z,1010.55
2016-06-28T07:19:03.898Z,1010.52
2016-06-28T07:20:03.884Z,1010.61
2016-06-28T07:21:03.873Z,1010.6
2016-06-28T07:22:03.856Z,1010.57
2016-06-28T07:23:03.847Z,1010.61
2016-06-28T07:24:03.832Z,1010.6
2016-06-28T07:25:03.824Z,1010.6
2016-06-28T07:26:03.803Z,1010.6
2016-06-28T07:27:03.791Z,1010.55
2016-06-28T07:28:03.781Z,1010.55
2016-06-28T07:29:03.798Z,1010.52
2016-06-28T07:30:03.755Z,1010.48
2016-06-28T07:31:03.747Z,1010.48
2016-06-28T07:32:03.729Z,1010.46
2016-06-28T07:33:03.716Z,1010.44
2016-06-28T07:34:03.703Z,1010.5
2016-06-28T07:35:03.694Z,1010.5
2016-06-28T07:36:03.680Z,1010.53
2016-06-28T07:37:03.670Z,1010.5
2016-06-28T07:38:03.652Z,1010.58
2016-06-28T07:39:03.640Z,1010.52
2016-06-28T07:40:03.667Z,1010.52
2016-06-28T07:41:03.618Z,1010.56
2016-06-28T07:42:03.603Z,1010.57
2016-06-28T07:43:03.622Z,1010.55
2016-06-28T07:44:03.579Z,1010.57
2016-06-28T07:45:03.565Z,1010.55
2016-06-28T07:46:03.553Z,1010.54
2016-06-28T07:47:03.539Z,1010.56
2016-06-28T07:48:03.534Z,1010.56
2016-06-28T07:49:03.608Z,1010.59
2016-06-28T07:50:03.506Z,1010.63
2016-06-28T07:51:03.534Z,1010.64
2016-06-28T07:52:03.481Z,1010.63
2016-06-28T07:53:03.466Z,1010.64
2016-06-28T07:54:03.449Z,1010.62
2016-06-28T07:55:03.549Z,1010.59
2016-06-28T07:56:03.481Z,1010.58
2016-06-28T07:57:03.431Z,1010.59
2016-06-28T07:58:03.430Z,1010.56
2016-06-28T07:59:03.416Z,1010.56
2016-06-28T08:00:03.383Z,1010.53
2016-06-28T08:01:03.402Z,1010.5
2016-06-28T08:02:03.405Z,1010.49
2016-06-28T08:03:03.411Z,1010.51
2016-06-28T08:04:03.353Z,1010.46
2016-06-28T08:05:03.349Z,1010.46
2016-06-28T08:06:03.351Z,1010.48
2016-06-28T08:07:03.306Z,1010.46
2016-06-28T08:08:03.335Z,1010.48
2016-06-28T08:09:03.297Z,1010.47
2016-06-28T08:10:03.278Z,1010.51
2016-06-28T08:11:03.248Z,1010.51
2016-06-28T08:12:03.272Z,1010.45
2016-06-28T08:13:03.222Z,1010.49
2016-06-28T08:14:03.207Z,1010.41
2016-06-28T08:15:03.198Z,1010.43
2016-06-28T08:16:03.206Z,1010.4
2016-06-28T08:17:03.174Z,1010.4
2016-06-28T08:18:03.429Z,1010.41
2016-06-28T08:19:03.151Z,1010.32
2016-06-28T08:20:03.135Z,1010.39
2016-06-28T08:21:03.132Z,1010.34
2016-06-28T08:22:03.112Z,1010.32
2016-06-28T08:23:03.099Z,1010.34
2016-06-28T08:24:03.090Z,1010.38
2016-06-28T08:25:03.081Z,1010.4
2016-06-28T08:26:03.060Z,1010.43
2016-06-28T08:27:03.119Z,1010.48
2016-06-28T08:28:03.039Z,1010.46
2016-06-28T08:29:03.039Z,1010.45
2016-06-28T08:30:03.018Z,1010.52
2016-06-28T08:31:03.008Z,1010.48
2016-06-28T08:32:02.998Z,1010.42
2016-06-28T08:33:02.977Z,1010.44
2016-06-28T08:34:03.150Z,1010.44
2016-06-28T08:35:02.962Z,1010.42
2016-06-28T08:36:02.974Z,1010.37
2016-06-28T08:37:02.938Z,1010.36
2016-06-28T08:38:02.926Z,1010.28
2016-06-28T08:39:02.911Z,1010.36
2016-06-28T08:40:02.936Z,1010.29
2016-06-28T08:41:02.889Z,1010.28
2016-06-28T08:42:02.877Z,1010.26
2016-06-28T08:43:02.872Z,1010.22
2016-06-28T08:44:02.850Z,1010.3
2016-06-28T08:45:02.847Z,1010.34
2016-06-28T08:46:02.842Z,1010.29
2016-06-28T08:47:02.821Z,1010.34
2016-06-28T08:48:02.846Z,1010.3
2016-06-28T08:49:02.800Z,1010.33
2016-06-28T08:50:02.806Z,1010.28
2016-06-28T08:51:02.787Z,1010.31
2016-06-28T08:52:02.765Z,1010.29
2016-06-28T08:53:02.752Z,1010.29
2016-06-28T08:54:02.749Z,1010.27
2016-06-28T08:55:02.733Z,1010.31
2016-06-28T08:56:02.717Z,1010.32
2016-06-28T08:57:02.730Z,1010.35
2016-06-28T08:58:02.699Z,1010.36
2016-06-28T08:59:02.695Z,1010.38
2016-06-28T09:00:02.678Z,1010.41
2016-06-28T09:01:02.662Z,1010.43
2016-06-28T09:02:02.681Z,1010.41
2016-06-28T09:03:02.673Z,1010.45
2016-06-28T09:04:02.645Z,1010.48
2016-06-28T09:05:02.632Z,1010.52
2016-06-28T09:06:02.612Z,1010.53
2016-06-28T09:07:02.706Z,1010.53
2016-06-28T09:08:02.588Z,1010.52
2016-06-28T09:09:02.577Z,1010.53
2016-06-28T09:10:02.642Z,1010.54
2016-06-28T09:11:02.702Z,1010.56
2016-06-28T09:12:02.546Z,1010.58
2016-06-28T09:13:02.537Z,1010.64
2016-06-28T09:14:02.523Z,1010.65
2016-06-28T09:15:02.508Z,1010.69
2016-06-28T09:16:02.507Z,1010.7
2016-06-28T09:17:02.497Z,1010.68
2016-06-28T09:18:02.522Z,1010.69
2016-06-28T09:19:02.471Z,1010.76
2016-06-28T09:20:02.462Z,1010.74
2016-06-28T09:21:02.450Z,1010.76
2016-06-28T09:22:02.440Z,1010.8
2016-06-28T09:23:02.454Z,1010.79
2016-06-28T09:24:02.424Z,1010.75
2016-06-28T09:25:02.432Z,1010.81
2016-06-28T09:26:02.388Z,1010.78
2016-06-28T09:27:02.394Z,1010.8
2016-06-28T09:28:02.381Z,1010.8
2016-06-28T09:29:02.373Z,1010.75
2016-06-28T09:30:02.360Z,1010.81
2016-06-28T09:31:02.351Z,1010.79
2016-06-28T09:32:02.393Z,1010.85
2016-06-28T09:33:02.336Z,1010.86
2016-06-28T09:34:02.321Z,1010.85
2016-06-28T09:35:02.301Z,1010.84
2016-06-28T09:36:02.438Z,1010.88
2016-06-28T09:37:02.299Z,1010.86
2016-06-28T09:38:02.268Z,1010.83
2016-06-28T09:39:02.255Z,1010.8
2016-06-28T09:40:02.403Z,1010.83
2016-06-28T09:41:02.551Z,1010.83
2016-06-28T09:42:02.236Z,1010.81
2016-06-28T09:43:02.518Z,1010.84
2016-06-28T09:44:02.363Z,1010.86
2016-06-28T09:45:02.290Z,1010.85
2016-06-28T09:46:02.182Z,1010.86
2016-06-28T09:47:02.166Z,1010.86
2016-06-28T09:48:02.161Z,1010.82
2016-06-28T09:49:02.154Z,1010.75
2016-06-28T09:50:02.170Z,1010.76
2016-06-28T09:51:02.126Z,1010.75
2016-06-28T09:52:02.164Z,1010.73
2016-06-28T09:53:02.269Z,1010.75
2016-06-28T09:54:02.095Z,1010.74
2016-06-28T09:55:02.093Z,1010.78
2016-06-28T09:56:02.078Z,1010.76
2016-06-28T09:57:02.062Z,1010.82
2016-06-28T09:58:02.072Z,1010.89
2016-06-28T09:59:02.225Z,1010.89
2016-06-28T10:00:02.034Z,1010.89
2016-06-28T10:01:02.023Z,1010.92
2016-06-28T10:02:02.016Z,1010.9
2016-06-28T10:03:01.999Z,1010.92
2016-06-28T10:04:01.994Z,1010.93
2016-06-28T10:05:02.130Z,1010.96
2016-06-28T10:06:01.973Z,1010.94
2016-06-28T10:07:01.967Z,1010.94
2016-06-28T10:08:01.951Z,1010.94
2016-06-28T10:09:01.963Z,1011.01
2016-06-28T10:10:01.934Z,1010.92
2016-06-28T10:11:02.132Z,1010.97
2016-06-28T10:12:01.925Z,1010.93
2016-06-28T10:13:01.905Z,1010.92
2016-06-28T10:14:01.883Z,1010.92
2016-06-28T10:15:01.880Z,1010.96
2016-06-28T10:16:01.873Z,1010.95
2016-06-28T10:17:01.863Z,1010.95
2016-06-28T10:18:01.862Z,1010.94
2016-06-28T10:19:01.846Z,1010.96
2016-06-28T10:20:01.879Z,1011.02
2016-06-28T10:21:02.170Z,1010.97
2016-06-28T10:22:01.807Z,1010.91
2016-06-28T10:23:01.796Z,1010.88
2016-06-28T10:24:01.847Z,1010.85
2016-06-28T10:25:01.838Z,1010.92
2016-06-28T10:26:01.927Z,1010.91
2016-06-28T10:27:01.764Z,1010.83
2016-06-28T10:28:01.748Z,1010.81
2016-06-28T10:29:01.738Z,1010.85
2016-06-28T10:30:01.733Z,1010.9
2016-06-28T10:31:01.722Z,1010.82
2016-06-28T10:32:01.725Z,1010.86
2016-06-28T10:33:01.693Z,1010.79
2016-06-28T10:34:01.703Z,1010.86
2016-06-28T10:35:01.814Z,1010.87
2016-06-28T10:36:01.991Z,1010.82
2016-06-28T10:37:01.771Z,1010.82
2016-06-28T10:38:01.647Z,1010.81
2016-06-28T10:39:01.655Z,1010.81
2016-06-28T10:40:01.684Z,1010.75
2016-06-28T10:41:01.618Z,1010.73
2016-06-28T10:42:01.606Z,1010.73
2016-06-28T10:43:01.599Z,1010.75
2016-06-28T10:44:01.594Z,1010.8
2016-06-28T10:45:01.586Z,1010.76
2016-06-28T10:46:01.613Z,1010.76
2016-06-28T10:47:01.601Z,1010.82
2016-06-28T10:48:01.563Z,1010.8
2016-06-28T10:49:01.764Z,1010.84
2016-06-28T10:50:01.534Z,1010.83
2016-06-28T10:51:01.526Z,1010.82
2016-06-28T10:52:01.514Z,1010.81
2016-06-28T10:53:01.504Z,1010.81
2016-06-28T10:54:01.494Z,1010.77
2016-06-28T10:55:01.484Z,1010.72
2016-06-28T10:56:01.483Z,1010.73
2016-06-28T10:57:01.486Z,1010.76
2016-06-28T10:58:01.461Z,1010.75
2016-06-28T10:59:01.455Z,1010.76
2016-06-28T11:00:01.438Z,1010.7
2016-06-28T11:01:01.431Z,1010.71
2016-06-28T11:02:01.426Z,1010.76
2016-06-28T11:03:01.414Z,1010.8
2016-06-28T11:04:01.429Z,1010.79
2016-06-28T11:05:01.396Z,1010.73
2016-06-28T11:06:01.387Z,1010.77
2016-06-28T11:07:01.374Z,1010.75
2016-06-28T11:08:01.371Z,1010.8
2016-06-28T11:09:01.357Z,1010.7
2016-06-28T11:10:01.498Z,1010.72
2016-06-28T11:11:01.342Z,1010.76
2016-06-28T11:12:01.343Z,1010.66
2016-06-28T11:13:01.327Z,1010.65
2016-06-28T11:14:01.315Z,1010.57
2016-06-28T11:15:01.305Z,1010.55
2016-06-28T11:16:01.295Z,1010.5
2016-06-28T11:17:01.288Z,1010.48
2016-06-28T11:18:01.285Z,1010.52
2016-06-28T11:19:01.433Z,1010.46
2016-06-28T11:20:01.257Z,1010.47
2016-06-28T11:21:01.255Z,1010.43
2016-06-28T11:22:01.247Z,1010.4
2016-06-28T11:23:01.276Z,1010.38
2016-06-28T11:24:01.244Z,1010.29
2016-06-28T11:25:01.220Z,1010.34
2016-06-28T11:26:01.210Z,1010.34
2016-06-28T11:27:01.203Z,1010.33
2016-06-28T11:28:01.191Z,1010.33
2016-06-28T11:29:01.190Z,1010.33
2016-06-28T11:30:01.176Z,1010.3
2016-06-28T11:31:01.171Z,1010.35
2016-06-28T11:32:01.161Z,1010.31
2016-06-28T11:33:01.149Z,1010.29
2016-06-28T11:34:01.142Z,1010.37
2016-06-28T11:35:01.157Z,1010.44
2016-06-28T11:36:01.135Z,1010.5
2016-06-28T11:37:01.114Z,1010.52
2016-06-28T11:38:01.109Z,1010.47
2016-06-28T11:39:01.106Z,1010.41
2016-06-28T11:40:01.098Z,1010.39
2016-06-28T11:41:01.091Z,1010.39
2016-06-28T11:42:01.090Z,1010.47
2016-06-28T11:43:01.078Z,1010.58
2016-06-28T11:44:01.075Z,1010.49
2016-06-28T11:45:01.071Z,1010.55
2016-06-28T11:46:01.071Z,1010.37
2016-06-28T11:47:01.057Z,1010.39
2016-06-28T11:48:01.055Z,1010.42
2016-06-28T11:49:01.058Z,1010.42
2016-06-28T11:50:01.057Z,1010.42
2016-06-28T11:51:01.059Z,1010.44
2016-06-28T11:52:01.040Z,1010.42
2016-06-28T11:53:01.048Z,1010.4
2016-06-28T11:54:01.037Z,1010.46
2016-06-28T11:55:01.034Z,1010.34
2016-06-28T11:56:01.030Z,1010.34
2016-06-28T11:57:01.033Z,1010.35
2016-06-28T11:58:01.026Z,1010.37
2016-06-28T11:59:01.026Z,1010.28
2016-06-28T12:00:01.036Z,1010.35
2016-06-28T12:01:01.023Z,1010.35
2016-06-28T12:02:01.030Z,1010.3
2016-06-28T12:03:01.022Z,1010.42
2016-06-28T12:04:01.016Z,1010.49
2016-06-28T12:05:01.023Z,1010.4
2016-06-28T12:06:01.018Z,1010.47
2016-06-28T12:07:01.013Z,1010.43
2016-06-28T12:08:01.021Z,1010.38
2016-06-28T12:09:01.012Z,1010.34